sensor_id;sensor_type;location;lat;lon;timestamp;temperature;humidity
28071;DHT22;15383;48.408;9.968;2023-09-08T03:00:58;20.30;87.00
28071;DHT22;15383;48.408;9.968;2023-09-08T03:03:24;20.30;87.00
28071;DHT22;15383;48.408;9.968;2023-09-08T03:05:54;20.30;87.00
28071;DHT22;15383;48.408;9.968;2023-09-08T03:08:22;20.60;87.10
28071;DHT22;15383;48.408;9.968;2023-09-08T03:10:48;20.30;86.90
28071;DHT22;15383;48.408;9.968;2023-09-08T03:13:14;20.30;86.90
28071;DHT22;15383;48.408;9.968;2023-09-08T03:15:40;20.30;86.90
28071;DHT22;15383;48.408;9.968;2023-09-08T03:18:06;20.30;86.90
28071;DHT22;15383;48.408;9.968;2023-09-08T03:20:35;20.30;86.80
28071;DHT22;15383;48.408;9.968;2023-09-08T03:23:00;20.30;86.80
28071;DHT22;15383;48.408;9.968;2023-09-08T03:25:26;20.70;87.00
28071;DHT22;15383;48.408;9.968;2023-09-08T03:27:52;20.30;86.70
28071;DHT22;15383;48.408;9.968;2023-09-08T03:30:17;20.30;86.70
28071;DHT22;15383;48.408;9.968;2023-09-08T03:32:44;20.30;86.70
28071;DHT22;15383;48.408;9.968;2023-09-08T03:35:12;20.30;86.70
28071;DHT22;15383;48.408;9.968;2023-09-08T03:37:38;20.30;86.70
28071;DHT22;15383;48.408;9.968;2023-09-08T03:40:04;20.30;86.60
28071;DHT22;15383;48.408;9.968;2023-09-08T03:42:31;20.30;86.60
28071;DHT22;15383;48.408;9.968;2023-09-08T03:44:57;20.50;86.70
28071;DHT22;15383;48.408;9.968;2023-09-08T03:47:23;20.30;86.60
28071;DHT22;15383;48.408;9.968;2023-09-08T03:49:49;20.30;86.60
28071;DHT22;15383;48.408;9.968;2023-09-08T03:52:15;20.30;86.60
28071;DHT22;15383;48.408;9.968;2023-09-08T03:54:41;20.30;86.60
28071;DHT22;15383;48.408;9.968;2023-09-08T03:57:06;20.30;86.60
28071;DHT22;15383;48.408;9.968;2023-09-08T03:59:32;20.30;86.50
28071;DHT22;15383;48.408;9.968;2023-09-08T04:01:58;20.30;86.60
28071;DHT22;15383;48.408;9.968;2023-09-08T04:04:23;20.30;86.50
28071;DHT22;15383;48.408;9.968;2023-09-08T04:06:49;20.30;86.50
28071;DHT22;15383;48.408;9.968;2023-09-08T04:09:15;20.20;86.50
28071;DHT22;15383;48.408;9.968;2023-09-08T04:11:41;20.20;86.50
28071;DHT22;15383;48.408;9.968;2023-09-08T04:14:07;20.20;86.50
28071;DHT22;15383;48.408;9.968;2023-09-08T04:16:35;20.20;86.50
28071;DHT22;15383;48.408;9.968;2023-09-08T04:19:01;20.30;86.60
28071;DHT22;15383;48.408;9.968;2023-09-08T04:21:26;20.20;86.50
28071;DHT22;15383;48.408;9.968;2023-09-08T04:23:52;20.50;86.70
28071;DHT22;15383;48.408;9.968;2023-09-08T04:26:18;20.20;86.50
28071;DHT22;15383;48.408;9.968;2023-09-08T04:28:46;20.20;86.50
28071;DHT22;15383;48.408;9.968;2023-09-08T04:31:12;20.20;86.80
28071;DHT22;15383;48.408;9.968;2023-09-08T04:33:38;20.20;86.50
28071;DHT22;15383;48.408;9.968;2023-09-08T04:36:04;20.20;87.20
28071;DHT22;15383;48.408;9.968;2023-09-08T04:38:30;20.20;86.50
28071;DHT22;15383;48.408;9.968;2023-09-08T04:40:55;20.20;87.20
28071;DHT22;15383;48.408;9.968;2023-09-08T04:43:21;20.20;86.50
28071;DHT22;15383;48.408;9.968;2023-09-08T04:45:47;20.20;86.50
28071;DHT22;15383;48.408;9.968;2023-09-08T04:48:12;20.20;86.40
28071;DHT22;15383;48.408;9.968;2023-09-08T04:50:38;20.40;84.10
28071;DHT22;15383;48.408;9.968;2023-09-08T04:53:04;20.00;83.00
28071;DHT22;15383;48.408;9.968;2023-09-08T04:55:30;19.90;82.50
28071;DHT22;15383;48.408;9.968;2023-09-08T04:57:55;19.80;82.60
28071;DHT22;15383;48.408;9.968;2023-09-08T05:00:21;19.80;83.00
28071;DHT22;15383;48.408;9.968;2023-09-08T05:02:47;19.70;83.00
28071;DHT22;15383;48.408;9.968;2023-09-08T05:05:13;19.60;83.30
28071;DHT22;15383;48.408;9.968;2023-09-08T05:07:38;19.60;83.40
28071;DHT22;15383;48.408;9.968;2023-09-08T05:10:04;19.60;83.60
28071;DHT22;15383;48.408;9.968;2023-09-08T05:12:30;19.60;84.00
28071;DHT22;15383;48.408;9.968;2023-09-08T05:14:56;19.60;84.10
28071;DHT22;15383;48.408;9.968;2023-09-08T05:17:25;19.50;84.20
28071;DHT22;15383;48.408;9.968;2023-09-08T05:19:51;19.50;84.20
28071;DHT22;15383;48.408;9.968;2023-09-08T05:22:17;19.60;84.50
28071;DHT22;15383;48.408;9.968;2023-09-08T05:24:43;19.50;84.50
28071;DHT22;15383;48.408;9.968;2023-09-08T05:27:08;19.50;84.40
28071;DHT22;15383;48.408;9.968;2023-09-08T05:29:34;19.50;84.50
28071;DHT22;15383;48.408;9.968;2023-09-08T05:31:59;19.50;84.60
28071;DHT22;15383;48.408;9.968;2023-09-08T05:34:25;19.40;84.60
28071;DHT22;15383;48.408;9.968;2023-09-08T05:36:50;19.40;84.70
28071;DHT22;15383;48.408;9.968;2023-09-08T05:39:16;19.40;84.80
28071;DHT22;15383;48.408;9.968;2023-09-08T05:41:44;19.40;84.90
28071;DHT22;15383;48.408;9.968;2023-09-08T05:44:09;19.30;85.00
28071;DHT22;15383;48.408;9.968;2023-09-08T05:46:35;19.40;85.30
28071;DHT22;15383;48.408;9.968;2023-09-08T05:49:00;19.40;85.40
28071;DHT22;15383;48.408;9.968;2023-09-08T05:51:26;19.30;85.70
28071;DHT22;15383;48.408;9.968;2023-09-08T05:53:52;19.30;86.00
28071;DHT22;15383;48.408;9.968;2023-09-08T05:56:18;19.70;86.40
28071;DHT22;15383;48.408;9.968;2023-09-08T05:58:45;19.40;86.30
28071;DHT22;15383;48.408;9.968;2023-09-08T06:01:10;19.40;86.50
28071;DHT22;15383;48.408;9.968;2023-09-08T06:03:36;19.40;86.60
28071;DHT22;15383;48.408;9.968;2023-09-08T06:06:01;19.30;86.60
28071;DHT22;15383;48.408;9.968;2023-09-08T06:08:27;19.40;86.80
28071;DHT22;15383;48.408;9.968;2023-09-08T06:10:53;19.40;86.80
28071;DHT22;15383;48.408;9.968;2023-09-08T06:13:18;19.70;87.20
28071;DHT22;15383;48.408;9.968;2023-09-08T06:15:44;19.40;87.30
28071;DHT22;15383;48.408;9.968;2023-09-08T06:18:11;19.30;87.50
28071;DHT22;15383;48.408;9.968;2023-09-08T06:20:36;19.40;87.70
28071;DHT22;15383;48.408;9.968;2023-09-08T06:23:02;19.40;87.70
28071;DHT22;15383;48.408;9.968;2023-09-08T06:25:28;19.40;87.80
28071;DHT22;15383;48.408;9.968;2023-09-08T06:27:56;19.40;87.80
28071;DHT22;15383;48.408;9.968;2023-09-08T06:30:22;19.40;88.00
28071;DHT22;15383;48.408;9.968;2023-09-08T06:32:47;19.40;88.10
28071;DHT22;15383;48.408;9.968;2023-09-08T06:35:13;19.40;88.30
28071;DHT22;15383;48.408;9.968;2023-09-08T06:37:39;19.40;88.40
28071;DHT22;15383;48.408;9.968;2023-09-08T06:40:05;19.80;88.80
28071;DHT22;15383;48.408;9.968;2023-09-08T06:42:31;19.50;88.60
28071;DHT22;15383;48.408;9.968;2023-09-08T06:44:57;19.50;88.80
28071;DHT22;15383;48.408;9.968;2023-09-08T06:47:22;19.50;88.80
28071;DHT22;15383;48.408;9.968;2023-09-08T06:49:48;19.50;88.90
28071;DHT22;15383;48.408;9.968;2023-09-08T06:52:14;19.50;88.80
28071;DHT22;15383;48.408;9.968;2023-09-08T06:54:39;19.50;88.80
28071;DHT22;15383;48.408;9.968;2023-09-08T06:57:05;19.50;88.70
28071;DHT22;15383;48.408;9.968;2023-09-08T06:59:30;20.00;90.00
28071;DHT22;15383;48.408;9.968;2023-09-08T07:01:56;19.50;88.90
28071;DHT22;15383;48.408;9.968;2023-09-08T07:04:21;19.60;89.10
28071;DHT22;15383;48.408;9.968;2023-09-08T07:06:47;19.60;89.50
28071;DHT22;15383;48.408;9.968;2023-09-08T07:09:15;19.70;89.60
28071;DHT22;15383;48.408;9.968;2023-09-08T07:11:41;19.50;89.50
28071;DHT22;15383;48.408;9.968;2023-09-08T07:14:06;19.60;89.50
28071;DHT22;15383;48.408;9.968;2023-09-08T07:16:32;19.70;89.60
28071;DHT22;15383;48.408;9.968;2023-09-08T07:18:57;19.70;89.50
28071;DHT22;15383;48.408;9.968;2023-09-08T07:21:25;19.70;89.40
28071;DHT22;15383;48.408;9.968;2023-09-08T07:23:50;19.70;89.30
28071;DHT22;15383;48.408;9.968;2023-09-08T07:26:17;19.70;89.40
28071;DHT22;15383;48.408;9.968;2023-09-08T07:28:42;19.70;89.40
28071;DHT22;15383;48.408;9.968;2023-09-08T07:31:08;19.80;89.30
28071;DHT22;15383;48.408;9.968;2023-09-08T07:33:34;19.70;90.00
28071;DHT22;15383;48.408;9.968;2023-09-08T07:36:07;19.70;90.20
28071;DHT22;15383;48.408;9.968;2023-09-08T07:38:33;19.80;89.80
28071;DHT22;15383;48.408;9.968;2023-09-08T07:40:59;19.80;90.00
28071;DHT22;15383;48.408;9.968;2023-09-08T07:43:28;19.80;89.80
28071;DHT22;15383;48.408;9.968;2023-09-08T07:45:53;19.80;89.70
28071;DHT22;15383;48.408;9.968;2023-09-08T07:48:19;19.80;89.80
28071;DHT22;15383;48.408;9.968;2023-09-08T07:50:45;19.80;89.70
28071;DHT22;15383;48.408;9.968;2023-09-08T07:53:10;19.80;89.70
28071;DHT22;15383;48.408;9.968;2023-09-08T07:55:36;19.80;89.60
28071;DHT22;15383;48.408;9.968;2023-09-08T07:58:02;19.90;90.00
28071;DHT22;15383;48.408;9.968;2023-09-08T08:00:29;19.90;90.00
28071;DHT22;15383;48.408;9.968;2023-09-08T08:02:56;19.90;90.40
28071;DHT22;15383;48.408;9.968;2023-09-08T08:05:22;19.90;90.00
28071;DHT22;15383;48.408;9.968;2023-09-08T08:07:48;19.80;90.00
28071;DHT22;15383;48.408;9.968;2023-09-08T08:10:14;19.90;90.10
28071;DHT22;15383;48.408;9.968;2023-09-08T08:12:40;20.10;90.10
28071;DHT22;15383;48.408;9.968;2023-09-08T08:15:07;20.00;90.10
28071;DHT22;15383;48.408;9.968;2023-09-08T08:17:32;19.90;90.30
28071;DHT22;15383;48.408;9.968;2023-09-08T08:19:58;19.90;90.30
28071;DHT22;15383;48.408;9.968;2023-09-08T08:22:25;20.00;90.30
28071;DHT22;15383;48.408;9.968;2023-09-08T08:24:50;20.00;90.30
28071;DHT22;15383;48.408;9.968;2023-09-08T08:27:16;20.00;90.30
28071;DHT22;15383;48.408;9.968;2023-09-08T08:29:41;20.00;90.30
28071;DHT22;15383;48.408;9.968;2023-09-08T08:32:07;20.00;90.30
28071;DHT22;15383;48.408;9.968;2023-09-08T08:34:33;20.00;90.30
28071;DHT22;15383;48.408;9.968;2023-09-08T08:36:58;20.00;90.30
28071;DHT22;15383;48.408;9.968;2023-09-08T08:39:24;20.00;90.20
28071;DHT22;15383;48.408;9.968;2023-09-08T08:41:50;20.00;90.20
28071;DHT22;15383;48.408;9.968;2023-09-08T08:44:17;20.00;90.20
28071;DHT22;15383;48.408;9.968;2023-09-08T08:46:45;20.00;90.20
28071;DHT22;15383;48.408;9.968;2023-09-08T08:49:15;20.10;90.20
28071;DHT22;15383;48.408;9.968;2023-09-08T08:51:44;20.10;90.20
28071;DHT22;15383;48.408;9.968;2023-09-08T08:54:14;20.00;90.20
28071;DHT22;15383;48.408;9.968;2023-09-08T08:56:41;20.10;90.10
28071;DHT22;15383;48.408;9.968;2023-09-08T08:59:09;20.10;90.10
28071;DHT22;15383;48.408;9.968;2023-09-08T09:01:35;20.10;90.20
28071;DHT22;15383;48.408;9.968;2023-09-08T09:04:01;20.10;90.20
28071;DHT22;15383;48.408;9.968;2023-09-08T09:06:29;20.10;90.20
28071;DHT22;15383;48.408;9.968;2023-09-08T09:08:55;20.10;90.20
28071;DHT22;15383;48.408;9.968;2023-09-08T09:11:21;20.10;90.10
28071;DHT22;15383;48.408;9.968;2023-09-08T09:13:47;20.10;90.10
28071;DHT22;15383;48.408;9.968;2023-09-08T09:16:12;20.20;90.10
28071;DHT22;15383;48.408;9.968;2023-09-08T09:19:00;20.10;89.70
28071;DHT22;15383;48.408;9.968;2023-09-08T09:21:45;20.20;90.00
28071;DHT22;15383;48.408;9.968;2023-09-08T09:24:19;20.20;90.00
28071;DHT22;15383;48.408;9.968;2023-09-08T09:26:53;20.20;89.80
28071;DHT22;15383;48.408;9.968;2023-09-08T09:29:19;20.20;89.90
28071;DHT22;15383;48.408;9.968;2023-09-08T09:32:11;20.20;90.00
28071;DHT22;15383;48.408;9.968;2023-09-08T09:34:51;20.20;90.00
28071;DHT22;15383;48.408;9.968;2023-09-08T09:37:19;20.20;90.00
28071;DHT22;15383;48.408;9.968;2023-09-08T09:39:54;20.30;89.90
28071;DHT22;15383;48.408;9.968;2023-09-08T09:42:21;20.30;89.50
28071;DHT22;15383;48.408;9.968;2023-09-08T09:44:48;20.30;89.60
28071;DHT22;15383;48.408;9.968;2023-09-08T09:47:14;20.30;89.60
28071;DHT22;15383;48.408;9.968;2023-09-08T09:49:48;20.40;90.00
28071;DHT22;15383;48.408;9.968;2023-09-08T09:52:21;20.40;89.90
28071;DHT22;15383;48.408;9.968;2023-09-08T09:54:48;20.40;89.80
28071;DHT22;15383;48.408;9.968;2023-09-08T09:57:16;20.30;89.60
28071;DHT22;15383;48.408;9.968;2023-09-08T09:59:45;20.40;89.60
28071;DHT22;15383;48.408;9.968;2023-09-08T10:02:14;20.40;90.20
28071;DHT22;15383;48.408;9.968;2023-09-08T10:04:41;20.40;90.10
28071;DHT22;15383;48.408;9.968;2023-09-08T10:07:07;20.40;90.30
28071;DHT22;15383;48.408;9.968;2023-09-08T10:09:33;20.50;90.30
28071;DHT22;15383;48.408;9.968;2023-09-08T10:12:03;20.50;90.30
28071;DHT22;15383;48.408;9.968;2023-09-08T10:14:30;20.50;90.10
28071;DHT22;15383;48.408;9.968;2023-09-08T10:16:59;20.50;90.00
28071;DHT22;15383;48.408;9.968;2023-09-08T10:19:25;20.60;90.00
28071;DHT22;15383;48.408;9.968;2023-09-08T10:21:53;20.60;90.00
28071;DHT22;15383;48.408;9.968;2023-09-08T10:24:32;20.60;90.10
28071;DHT22;15383;48.408;9.968;2023-09-08T10:27:08;20.60;90.00
28071;DHT22;15383;48.408;9.968;2023-09-08T10:29:37;20.60;90.10
28071;DHT22;15383;48.408;9.968;2023-09-08T10:32:04;20.70;90.10
28071;DHT22;15383;48.408;9.968;2023-09-08T10:34:31;20.70;90.20
28071;DHT22;15383;48.408;9.968;2023-09-08T10:36:58;20.70;90.40
28071;DHT22;15383;48.408;9.968;2023-09-08T10:39:37;20.70;90.20
28071;DHT22;15383;48.408;9.968;2023-09-08T10:45:14;20.80;90.20
28071;DHT22;15383;48.408;9.968;2023-09-08T10:48:00;20.80;90.40
28071;DHT22;15383;48.408;9.968;2023-09-08T10:50:31;20.80;90.30
28071;DHT22;15383;48.408;9.968;2023-09-08T10:53:09;20.80;90.30
28071;DHT22;15383;48.408;9.968;2023-09-08T10:55:49;20.80;90.40
28071;DHT22;15383;48.408;9.968;2023-09-08T10:58:31;20.80;90.30
28071;DHT22;15383;48.408;9.968;2023-09-08T11:01:02;20.80;90.30
28071;DHT22;15383;48.408;9.968;2023-09-08T11:06:07;20.90;90.90
28071;DHT22;15383;48.408;9.968;2023-09-08T11:08:34;20.90;90.80
28071;DHT22;15383;48.408;9.968;2023-09-08T11:11:01;20.90;90.70
28071;DHT22;15383;48.408;9.968;2023-09-08T11:13:27;20.90;90.70
28071;DHT22;15383;48.408;9.968;2023-09-08T11:15:53;20.90;91.00
28071;DHT22;15383;48.408;9.968;2023-09-08T11:18:26;21.00;91.30
28071;DHT22;15383;48.408;9.968;2023-09-08T11:20:53;21.10;91.60
28071;DHT22;15383;48.408;9.968;2023-09-08T11:23:19;21.10;91.80
28071;DHT22;15383;48.408;9.968;2023-09-08T11:25:46;21.10;92.00
28071;DHT22;15383;48.408;9.968;2023-09-08T11:28:12;21.10;91.90
28071;DHT22;15383;48.408;9.968;2023-09-08T11:30:39;21.10;91.80
28071;DHT22;15383;48.408;9.968;2023-09-08T11:33:20;21.10;91.60
28071;DHT22;15383;48.408;9.968;2023-09-08T11:35:55;21.10;91.70
28071;DHT22;15383;48.408;9.968;2023-09-08T11:38:27;21.20;91.60
28071;DHT22;15383;48.408;9.968;2023-09-08T11:40:55;21.20;91.90
28071;DHT22;15383;48.408;9.968;2023-09-08T11:43:22;21.30;91.90
28071;DHT22;15383;48.408;9.968;2023-09-08T11:45:48;21.30;91.70
28071;DHT22;15383;48.408;9.968;2023-09-08T11:48:14;21.30;91.60
28071;DHT22;15383;48.408;9.968;2023-09-08T11:50:41;21.30;91.70
28071;DHT22;15383;48.408;9.968;2023-09-08T11:53:07;21.30;91.70
28071;DHT22;15383;48.408;9.968;2023-09-08T11:55:34;21.30;91.60
28071;DHT22;15383;48.408;9.968;2023-09-08T11:58:01;21.30;91.40
28071;DHT22;15383;48.408;9.968;2023-09-08T12:00:27;21.40;91.70
28071;DHT22;15383;48.408;9.968;2023-09-08T12:02:54;21.30;91.40
28071;DHT22;15383;48.408;9.968;2023-09-08T12:07:50;21.40;91.30
28071;DHT22;15383;48.408;9.968;2023-09-08T12:10:17;21.40;91.20
28071;DHT22;15383;48.408;9.968;2023-09-08T12:12:45;21.40;91.10
28071;DHT22;15383;48.408;9.968;2023-09-08T12:15:11;21.40;91.20
28071;DHT22;15383;48.408;9.968;2023-09-08T12:17:47;21.40;91.60
28071;DHT22;15383;48.408;9.968;2023-09-08T12:20:14;21.60;91.30
28071;DHT22;15383;48.408;9.968;2023-09-08T12:22:47;21.50;91.80
28071;DHT22;15383;48.408;9.968;2023-09-08T12:25:14;21.60;92.10
28071;DHT22;15383;48.408;9.968;2023-09-08T12:27:41;21.70;92.00
28071;DHT22;15383;48.408;9.968;2023-09-08T12:30:07;21.80;92.30
28071;DHT22;15383;48.408;9.968;2023-09-08T12:32:34;21.80;92.10
28071;DHT22;15383;48.408;9.968;2023-09-08T12:35:02;21.70;91.90
28071;DHT22;15383;48.408;9.968;2023-09-08T12:37:29;21.80;92.00
28071;DHT22;15383;48.408;9.968;2023-09-08T12:39:55;21.80;92.00
28071;DHT22;15383;48.408;9.968;2023-09-08T12:42:21;21.80;91.80
28071;DHT22;15383;48.408;9.968;2023-09-08T12:44:51;21.80;91.10
28071;DHT22;15383;48.408;9.968;2023-09-08T12:47:17;21.80;91.30
28071;DHT22;15383;48.408;9.968;2023-09-08T12:49:42;21.80;91.30
28071;DHT22;15383;48.408;9.968;2023-09-08T12:52:08;21.80;91.40
28071;DHT22;15383;48.408;9.968;2023-09-08T12:54:35;21.80;91.40
28071;DHT22;15383;48.408;9.968;2023-09-08T12:57:01;21.80;91.50
28071;DHT22;15383;48.408;9.968;2023-09-08T12:59:27;21.90;91.60
28071;DHT22;15383;48.408;9.968;2023-09-08T13:01:52;21.90;91.60
28071;DHT22;15383;48.408;9.968;2023-09-08T13:04:18;21.80;91.50
28071;DHT22;15383;48.408;9.968;2023-09-08T13:06:44;21.90;91.40
28071;DHT22;15383;48.408;9.968;2023-09-08T13:09:10;21.80;91.30
28071;DHT22;15383;48.408;9.968;2023-09-08T13:11:36;21.80;91.30
28071;DHT22;15383;48.408;9.968;2023-09-08T13:14:02;21.80;91.20
28071;DHT22;15383;48.408;9.968;2023-09-08T13:16:27;21.80;91.20
28071;DHT22;15383;48.408;9.968;2023-09-08T13:18:53;21.80;91.20
28071;DHT22;15383;48.408;9.968;2023-09-08T13:21:19;21.80;91.10
28071;DHT22;15383;48.408;9.968;2023-09-08T13:23:44;21.80;91.30
28071;DHT22;15383;48.408;9.968;2023-09-08T13:26:10;21.90;91.10
28071;DHT22;15383;48.408;9.968;2023-09-08T13:28:35;21.80;91.10
28071;DHT22;15383;48.408;9.968;2023-09-08T13:31:01;21.80;91.10
28071;DHT22;15383;48.408;9.968;2023-09-08T13:33:27;21.90;91.00
28071;DHT22;15383;48.408;9.968;2023-09-08T13:35:52;21.90;91.10
28071;DHT22;15383;48.408;9.968;2023-09-08T13:38:18;21.90;90.90
28071;DHT22;15383;48.408;9.968;2023-09-08T13:40:44;21.90;90.90
28071;DHT22;15383;48.408;9.968;2023-09-08T13:43:09;21.90;91.00
28071;DHT22;15383;48.408;9.968;2023-09-08T13:45:36;21.90;90.90
28071;DHT22;15383;48.408;9.968;2023-09-08T13:48:02;21.90;91.00
28071;DHT22;15383;48.408;9.968;2023-09-08T13:50:29;21.90;91.00
28071;DHT22;15383;48.408;9.968;2023-09-08T13:52:55;21.90;91.00
28071;DHT22;15383;48.408;9.968;2023-09-08T13:55:21;21.90;91.00
28071;DHT22;15383;48.408;9.968;2023-09-08T13:57:49;21.90;90.90
28071;DHT22;15383;48.408;9.968;2023-09-08T14:00:16;21.90;90.90
28071;DHT22;15383;48.408;9.968;2023-09-08T14:02:41;21.90;90.90
28071;DHT22;15383;48.408;9.968;2023-09-08T14:05:07;21.90;90.90
28071;DHT22;15383;48.408;9.968;2023-09-08T14:07:33;21.90;90.90
28071;DHT22;15383;48.408;9.968;2023-09-08T14:09:58;21.90;90.80
28071;DHT22;15383;48.408;9.968;2023-09-08T14:12:24;21.90;90.80
28071;DHT22;15383;48.408;9.968;2023-09-08T14:14:50;21.90;90.70
28071;DHT22;15383;48.408;9.968;2023-09-08T14:17:15;21.90;90.70
28071;DHT22;15383;48.408;9.968;2023-09-08T14:19:41;21.90;90.60
28071;DHT22;15383;48.408;9.968;2023-09-08T14:22:06;21.90;90.70
28071;DHT22;15383;48.408;9.968;2023-09-08T14:24:32;21.90;90.70
28071;DHT22;15383;48.408;9.968;2023-09-08T14:26:57;21.90;90.60
28071;DHT22;15383;48.408;9.968;2023-09-08T14:29:23;21.90;90.60
28071;DHT22;15383;48.408;9.968;2023-09-08T14:31:49;21.80;90.50
28071;DHT22;15383;48.408;9.968;2023-09-08T14:34:15;21.90;90.50
28071;DHT22;15383;48.408;9.968;2023-09-08T14:36:40;21.80;90.60
28071;DHT22;15383;48.408;9.968;2023-09-08T14:39:06;21.80;90.70
28071;DHT22;15383;48.408;9.968;2023-09-08T14:41:32;21.90;90.70
28071;DHT22;15383;48.408;9.968;2023-09-08T14:43:57;21.90;90.70
28071;DHT22;15383;48.408;9.968;2023-09-08T14:46:23;21.90;90.70
28071;DHT22;15383;48.408;9.968;2023-09-08T14:48:48;21.90;90.70
28071;DHT22;15383;48.408;9.968;2023-09-08T14:51:14;21.90;90.90
28071;DHT22;15383;48.408;9.968;2023-09-08T14:53:40;21.90;90.80
28071;DHT22;15383;48.408;9.968;2023-09-08T14:56:05;21.90;90.90
28071;DHT22;15383;48.408;9.968;2023-09-08T14:58:31;21.90;90.80
28071;DHT22;15383;48.408;9.968;2023-09-08T15:01:08;21.90;90.70
28071;DHT22;15383;48.408;9.968;2023-09-08T15:03:34;21.90;90.70
28071;DHT22;15383;48.408;9.968;2023-09-08T15:06:00;21.90;90.70
28071;DHT22;15383;48.408;9.968;2023-09-08T15:08:26;21.90;90.60
28071;DHT22;15383;48.408;9.968;2023-09-08T15:10:52;21.90;90.60
28071;DHT22;15383;48.408;9.968;2023-09-08T15:13:17;21.90;90.50
28071;DHT22;15383;48.408;9.968;2023-09-08T15:15:43;21.90;90.40
28071;DHT22;15383;48.408;9.968;2023-09-08T15:18:08;21.80;90.40
28071;DHT22;15383;48.408;9.968;2023-09-08T15:20:34;21.90;90.40
28071;DHT22;15383;48.408;9.968;2023-09-08T15:23:00;21.80;90.30
28071;DHT22;15383;48.408;9.968;2023-09-08T15:25:25;21.90;90.70
28071;DHT22;15383;48.408;9.968;2023-09-08T15:27:51;21.90;90.20
28071;DHT22;15383;48.408;9.968;2023-09-08T15:30:18;21.80;90.20
28071;DHT22;15383;48.408;9.968;2023-09-08T15:32:44;21.80;90.20
28071;DHT22;15383;48.408;9.968;2023-09-08T15:35:10;21.80;90.20
28071;DHT22;15383;48.408;9.968;2023-09-08T15:37:36;21.80;90.20
28071;DHT22;15383;48.408;9.968;2023-09-08T15:40:02;21.80;90.20
28071;DHT22;15383;48.408;9.968;2023-09-08T15:42:29;21.80;90.20
28071;DHT22;15383;48.408;9.968;2023-09-08T15:44:55;21.80;90.20
28071;DHT22;15383;48.408;9.968;2023-09-08T15:47:20;21.80;90.20
28071;DHT22;15383;48.408;9.968;2023-09-08T15:49:46;21.80;90.30
28071;DHT22;15383;48.408;9.968;2023-09-08T15:52:12;21.80;90.30
28071;DHT22;15383;48.408;9.968;2023-09-08T15:54:37;21.80;90.30
28071;DHT22;15383;48.408;9.968;2023-09-08T15:57:03;21.80;90.30
28071;DHT22;15383;48.408;9.968;2023-09-08T15:59:29;21.80;90.30
28071;DHT22;15383;48.408;9.968;2023-09-08T16:01:55;21.80;90.20
28071;DHT22;15383;48.408;9.968;2023-09-08T16:04:20;21.80;90.20
28071;DHT22;15383;48.408;9.968;2023-09-08T16:06:46;21.80;90.20
28071;DHT22;15383;48.408;9.968;2023-09-08T16:09:11;21.80;90.30
28071;DHT22;15383;48.408;9.968;2023-09-08T16:11:37;21.80;90.30
28071;DHT22;15383;48.408;9.968;2023-09-08T16:14:03;21.80;90.30
28071;DHT22;15383;48.408;9.968;2023-09-08T16:16:29;21.80;90.30
28071;DHT22;15383;48.408;9.968;2023-09-08T16:18:55;21.80;90.30
28071;DHT22;15383;48.408;9.968;2023-09-08T16:21:20;21.90;90.40
28071;DHT22;15383;48.408;9.968;2023-09-08T16:23:46;21.80;90.30
28071;DHT22;15383;48.408;9.968;2023-09-08T16:26:11;21.80;90.30
28071;DHT22;15383;48.408;9.968;2023-09-08T16:28:37;21.80;90.40
28071;DHT22;15383;48.408;9.968;2023-09-08T16:31:08;21.70;90.40
28071;DHT22;15383;48.408;9.968;2023-09-08T16:33:34;21.70;90.40
28071;DHT22;15383;48.408;9.968;2023-09-08T16:36:00;21.80;90.50
28071;DHT22;15383;48.408;9.968;2023-09-08T16:38:25;21.80;90.60
28071;DHT22;15383;48.408;9.968;2023-09-08T16:40:51;21.70;90.60
28071;DHT22;15383;48.408;9.968;2023-09-08T16:43:16;21.80;90.70
28071;DHT22;15383;48.408;9.968;2023-09-08T16:45:42;21.80;90.70
28071;DHT22;15383;48.408;9.968;2023-09-08T16:48:08;21.70;90.60
28071;DHT22;15383;48.408;9.968;2023-09-08T16:50:34;21.70;90.60
28071;DHT22;15383;48.408;9.968;2023-09-08T16:52:59;21.70;90.60
28071;DHT22;15383;48.408;9.968;2023-09-08T16:55:25;21.70;90.60
28071;DHT22;15383;48.408;9.968;2023-09-08T16:57:51;21.70;90.60
28071;DHT22;15383;48.408;9.968;2023-09-08T17:00:17;21.70;90.70
28071;DHT22;15383;48.408;9.968;2023-09-08T17:02:42;21.70;90.70
28071;DHT22;15383;48.408;9.968;2023-09-08T17:05:08;21.70;90.80
28071;DHT22;15383;48.408;9.968;2023-09-08T17:07:34;21.70;90.90
28071;DHT22;15383;48.408;9.968;2023-09-08T17:10:02;21.70;90.90
28071;DHT22;15383;48.408;9.968;2023-09-08T17:12:27;21.70;91.40
28071;DHT22;15383;48.408;9.968;2023-09-08T17:14:53;21.70;91.10
28071;DHT22;15383;48.408;9.968;2023-09-08T17:17:19;21.70;91.20
28071;DHT22;15383;48.408;9.968;2023-09-08T17:19:45;21.70;91.30
28071;DHT22;15383;48.408;9.968;2023-09-08T17:22:11;21.70;91.30
28071;DHT22;15383;48.408;9.968;2023-09-08T17:24:36;21.70;91.40
28071;DHT22;15383;48.408;9.968;2023-09-08T17:27:02;21.70;91.40
28071;DHT22;15383;48.408;9.968;2023-09-08T17:29:28;21.70;91.40
28071;DHT22;15383;48.408;9.968;2023-09-08T17:31:54;21.70;91.50
28071;DHT22;15383;48.408;9.968;2023-09-08T17:34:21;21.70;91.40
28071;DHT22;15383;48.408;9.968;2023-09-08T17:36:54;21.60;91.40
28071;DHT22;15383;48.408;9.968;2023-09-08T17:39:21;21.60;91.40
28071;DHT22;15383;48.408;9.968;2023-09-08T17:41:47;21.60;91.50
28071;DHT22;15383;48.408;9.968;2023-09-08T17:44:15;21.60;91.60
28071;DHT22;15383;48.408;9.968;2023-09-08T17:46:41;21.60;91.70
28071;DHT22;15383;48.408;9.968;2023-09-08T17:49:07;21.70;91.70
28071;DHT22;15383;48.408;9.968;2023-09-08T17:51:33;21.60;91.60
28071;DHT22;15383;48.408;9.968;2023-09-08T17:53:58;21.60;91.60
28071;DHT22;15383;48.408;9.968;2023-09-08T17:56:24;21.60;91.70
28071;DHT22;15383;48.408;9.968;2023-09-08T17:58:50;21.50;91.80
28071;DHT22;15383;48.408;9.968;2023-09-08T18:01:15;21.50;91.80
28071;DHT22;15383;48.408;9.968;2023-09-08T18:03:45;21.60;91.90
28071;DHT22;15383;48.408;9.968;2023-09-08T18:06:10;21.50;92.00
28071;DHT22;15383;48.408;9.968;2023-09-08T18:08:36;21.50;91.90
28071;DHT22;15383;48.408;9.968;2023-09-08T18:11:04;21.50;92.00
28071;DHT22;15383;48.408;9.968;2023-09-08T18:13:30;21.50;92.00
28071;DHT22;15383;48.408;9.968;2023-09-08T18:16:00;21.50;92.10
28071;DHT22;15383;48.408;9.968;2023-09-08T18:18:26;21.50;92.20
28071;DHT22;15383;48.408;9.968;2023-09-08T18:20:52;21.40;92.10
28071;DHT22;15383;48.408;9.968;2023-09-08T18:23:19;21.40;92.20
28071;DHT22;15383;48.408;9.968;2023-09-08T18:25:45;21.50;92.20
28071;DHT22;15383;48.408;9.968;2023-09-08T18:28:12;21.40;92.20
28071;DHT22;15383;48.408;9.968;2023-09-08T18:30:41;21.40;92.20
28071;DHT22;15383;48.408;9.968;2023-09-08T18:33:07;21.40;92.30
28071;DHT22;15383;48.408;9.968;2023-09-08T18:35:32;21.40;92.30